CheckWX is a tool to help pilots better visualize weather data.  It is not intended as a substitute for an official pre-flight weather briefing.

05:13:33 UTC

KAUN METAR
Auburn Municipal Airport
Auburn, California, USA
Current

19 mins ago

KAUN 240455Z AUTO 08007KT 9SM SCT023 BKN035 OVC090 07/06 A3020 RMK A01 P0001
Observed
Mar-24 @ 04:55 UTC
Wind
  • 080° at 7 KTS
Visibility
9 SM
Flight Rules
VFR
Cloud Levels
  • Scattered at 2,300' AGL
  • Broken at 3,500' AGL
  • Overcast at 9,000' AGL
Temperature
C / 45°F
Dewpoint
C / 43°F
Humidity
93%
Altimeter
30.2" Hg
Pressure
1022.72 hPa
Current Rain
0.01"
Previous

39 mins ago

KAUN 240435Z AUTO 10008KT 5SM BR FEW023 SCT029 BKN034 07/06 A3020 RMK A01
Observed
Mar-24 @ 04:35 UTC
Wind
  • 100° at 8 KTS
Visibility
5 SM
Flight Rules
MVFR
Conditions
Mist
Cloud Levels
  • Few at 2,300' AGL
  • Scattered at 2,900' AGL
  • Broken at 3,400' AGL
Temperature
C / 45°F
Dewpoint
C / 43°F
Humidity
93%
Altimeter
30.2" Hg
Pressure
1022.72 hPa
Previous

59 mins ago

KAUN 240415Z AUTO 11010KT 10SM BKN048 BKN075 07/06 A3020 RMK A01
Observed
Mar-24 @ 04:15 UTC
Wind
  • 110° at 10 KTS
Visibility
10 SM
Flight Rules
VFR
Cloud Levels
  • Broken at 4,800' AGL
  • Broken at 7,500' AGL
Temperature
C / 45°F
Dewpoint
C / 43°F
Humidity
93%
Altimeter
30.2" Hg
Pressure
1022.72 hPa